Time;durP1;ratioP1;P1;durP2;ratioP2;P2;SDS_P1;SDS_P2;PMS_P1;PMS_P2;Temp;Humidity;BMP_temperature;BMP_pressure;BME280_temperature;BME280_humidity;BME280_pressure;Samples;Min_cycle;Max_cycle;Signal;HPM_P1;HPM_P2
2022/10/29 06:16:05;;;;;;;3.25;3.05;;;;;;;16.04;66.67;100981.00;4492073;31;421345;-83
2022/10/29 06:18:33;;;;;;;3.60;2.50;;;;;;;16.04;66.67;100981.00;4473424;32;33094;-82
2022/10/29 06:21:04;;;;;;;1.98;1.50;;;;;;;15.54;67.20;100992.19;4475830;31;34642;-82
2022/10/29 06:23:34;;;;;;;2.67;2.47;;;;;;;15.36;67.46;100993.88;4472844;32;33408;-82
2022/10/29 06:26:05;;;;;;;3.00;2.35;;;;;;;15.37;67.71;100992.09;4463827;32;32424;-83
2022/10/29 06:28:48;;;;;;;3.05;2.30;;;;;;;15.64;66.69;100991.81;4478309;31;34109;-83
2022/10/29 06:31:16;;;;;;;18.12;2.17;;;;;;;15.67;66.46;101007.66;4484685;31;33921;-83
2022/10/29 06:33:46;;;;;;;4.25;2.37;;;;;;;15.44;67.24;101012.19;4474874;32;33716;-82
2022/10/29 06:36:17;;;;;;;2.33;2.12;;;;;;;15.40;67.54;100994.62;4472417;32;34131;-83
2022/10/29 06:38:47;;;;;;;2.55;1.70;;;;;;;15.45;67.50;101005.94;4486801;31;33304;-83
2022/10/29 06:41:17;;;;;;;4.87;2.12;;;;;;;15.29;67.83;101007.56;4464374;32;33266;-83
2022/10/29 06:43:47;;;;;;;4.10;2.28;;;;;;;15.20;67.96;101002.63;4486160;32;33343;-83
2022/10/29 06:46:21;;;;;;;2.72;2.53;;;;;;;15.32;67.80;101002.06;4476811;32;33415;-83
2022/10/29 06:51:32;;;;;;;0.85;0.85;;;;;;;15.18;67.95;101020.44;4472780;32;32552;-83
2022/10/29 06:56:38;;;;;;;3.08;2.40;;;;;;;15.31;67.75;101013.66;4477338;32;33015;-88
2022/10/29 06:59:11;;;;;;;1.98;1.87;;;;;;;15.13;68.51;101007.34;4477970;31;32057;-87
2022/10/29 07:01:39;;;;;;;2.62;2.45;;;;;;;14.88;69.26;100996.87;4489658;32;33996;-83
2022/10/29 07:04:11;;;;;;;1.25;1.17;;;;;;;14.94;68.96;100993.09;4468411;31;32933;-84
2022/10/29 07:06:39;;;;;;;10.57;2.40;;;;;;;14.94;69.13;100991.28;4484809;32;32303;-83
2022/10/29 07:09:09;;;;;;;1.73;1.62;;;;;;;14.78;69.87;101000.88;4492039;31;33102;-84
2022/10/29 07:11:44;;;;;;;3.30;2.95;;;;;;;15.04;69.28;101003.28;4481675;32;34686;-84
2022/10/29 07:14:12;;;;;;;1.60;1.50;;;;;;;15.10;69.10;101002.16;4481866;32;34236;-85
2022/10/29 07:16:46;;;;;;;2.25;2.08;;;;;;;15.11;68.97;101007.41;4471195;32;32962;-84
2022/10/29 07:19:16;;;;;;;4.22;3.75;;;;;;;15.02;69.22;101012.25;4456805;32;32272;-84
2022/10/29 07:21:49;;;;;;;2.70;2.37;;;;;;;15.10;68.97;101013.66;4452538;32;33526;-84
2022/10/29 07:24:18;;;;;;;4.07;3.28;;;;;;;15.24;68.56;101013.06;4458063;31;33277;-84
2022/10/29 07:26:50;;;;;;;5.47;3.20;;;;;;;15.02;69.39;101017.59;4462733;32;33236;-84
2022/10/29 07:29:21;;;;;;;2.92;2.05;;;;;;;14.90;69.81;101016.28;4457295;32;32718;-84
2022/10/29 07:31:51;;;;;;;4.37;3.47;;;;;;;14.97;69.83;101006.28;4463257;32;33848;-84
2022/10/29 07:34:20;;;;;;;2.85;2.37;;;;;;;15.06;69.79;101022.72;4458568;32;33856;-83
2022/10/29 07:36:50;;;;;;;2.55;2.35;;;;;;;15.31;68.53;101026.97;4465353;32;33379;-84
2022/10/29 07:39:26;;;;;;;5.15;4.37;;;;;;;15.40;68.25;101031.03;4469616;32;34053;-85
2022/10/29 07:41:56;;;;;;;1.80;1.62;;;;;;;15.30;68.58;101036.75;4478660;32;33854;-85
2022/10/29 07:44:29;;;;;;;4.05;3.70;;;;;;;15.20;69.24;101013.28;4462155;31;33376;-84
2022/10/29 07:47:00;;;;;;;3.25;2.72;;;;;;;15.03;70.36;101001.53;4453544;32;33500;-89
2022/10/29 07:49:31;;;;;;;3.85;3.50;;;;;;;14.94;70.39;101011.72;4464636;32;33366;-86
2022/10/29 07:54:35;;;;;;;3.47;2.90;;;;;;;15.05;70.04;101020.13;4476449;31;34496;-85
2022/10/29 07:57:07;;;;;;;2.72;2.25;;;;;;;15.17;69.85;101011.59;4465267;31;32924;-84
2022/10/29 07:59:37;;;;;;;3.95;2.97;;;;;;;15.05;70.16;101015.66;4462226;31;32279;-85
2022/10/29 08:02:15;;;;;;;2.92;2.78;;;;;;;15.06;69.77;101009.41;4455781;32;32882;-85
2022/10/29 08:04:49;;;;;;;4.07;2.95;;;;;;;15.16;69.90;101006.34;4456804;32;33057;-85
2022/10/29 08:07:18;;;;;;;12.25;2.80;;;;;;;15.62;68.21;101016.69;4472958;31;33600;-85
2022/10/29 08:09:51;;;;;;;5.53;2.45;;;;;;;15.82;66.99;101023.78;4453822;32;33390;-87
2022/10/29 08:12:21;;;;;;;2.42;1.45;;;;;;;15.42;68.66;101022.03;4463169;32;33669;-87
2022/10/29 08:14:49;;;;;;;3.17;2.87;;;;;;;15.26;69.31;101013.00;4455755;32;33652;-84
2022/10/29 08:17:21;;;;;;;6.80;3.47;;;;;;;14.97;70.36;101016.91;4451813;32;32572;-88
2022/10/29 08:19:51;;;;;;;2.92;2.00;;;;;;;15.01;70.22;101019.38;4457926;32;32597;-88
2022/10/29 08:22:22;;;;;;;7.53;2.90;;;;;;;15.23;69.59;101021.09;4459407;32;33383;-88
2022/10/29 08:24:59;;;;;;;11.52;2.72;;;;;;;15.18;69.87;101009.78;4475875;31;34756;-89
2022/10/29 08:27:27;;;;;;;6.85;3.95;;;;;;;15.09;70.60;101011.06;4454373;32;32709;-87
2022/10/29 08:29:56;;;;;;;19.02;4.75;;;;;;;15.14;70.36;101009.06;4465070;32;33424;-89
2022/10/29 08:32:27;;;;;;;4.65;3.85;;;;;;;15.08;70.84;101004.88;4450664;32;33865;-90
2022/10/29 08:35:01;;;;;;;4.68;2.37;;;;;;;15.07;70.74;101013.78;4456444;32;34686;-89
2022/10/29 08:37:45;;;;;;;7.55;3.30;;;;;;;15.32;70.05;101020.69;4464843;32;33662;-88
2022/10/29 08:40:43;;;;;;;5.35;2.90;;;;;;;15.28;70.47;101021.75;4464576;32;33602;-89
2022/10/29 08:43:29;;;;;;;5.72;3.92;;;;;;;15.56;69.68;101029.38;4465617;32;33988;-87
2022/10/29 08:46:01;;;;;;;4.62;3.30;;;;;;;15.75;68.04;101037.44;4474455;32;33533;-88
2022/10/29 08:48:38;;;;;;;14.48;3.28;;;;;;;15.45;69.31;101026.34;4453063;31;33133;-90
2022/10/29 08:51:27;;;;;;;10.45;5.95;;;;;;;15.43;69.66;101021.09;4466891;32;34290;-89
2022/10/29 08:53:57;;;;;;;4.15;3.15;;;;;;;15.04;71.07;101013.91;4469534;32;32765;-88
2022/10/29 08:56:54;;;;;;;7.10;3.33;;;;;;;14.80;72.16;101012.28;4461634;32;33076;-86
2022/10/29 08:59:25;;;;;;;4.68;4.25;;;;;;;14.82;72.10;101013.13;4457234;32;32880;-88
2022/10/29 09:01:58;;;;;;;5.40;4.15;;;;;;;15.09;71.62;101006.59;4454020;32;32299;-90
2022/10/29 09:04:35;;;;;;;4.37;3.92;;;;;;;15.09;71.69;100995.94;4455962;32;32826;-88
2022/10/29 09:07:15;;;;;;;8.25;4.80;;;;;;;15.14;71.07;101002.87;4454195;32;32613;-89
2022/10/29 09:09:58;;;;;;;8.50;5.93;;;;;;;15.22;70.83;101001.62;4464020;32;32505;-89
2022/10/29 09:19:10;;;;;;;3.47;3.17;;;;;;;14.99;70.91;101004.41;4478068;32;32289;-89
2022/10/29 09:21:53;;;;;;;6.32;5.10;;;;;;;14.80;71.22;101004.31;4470734;32;32285;-88
2022/10/29 09:24:39;;;;;;;10.80;5.95;;;;;;;14.99;70.83;100999.94;4409185;32;32350;-88
2022/10/29 09:27:24;;;;;;;5.15;4.60;;;;;;;15.09;70.97;100995.94;4396938;32;32943;-87
2022/10/29 09:30:20;;;;;;;6.07;4.35;;;;;;;15.19;70.97;101000.88;4421066;32;33901;-89
2022/10/29 09:33:06;;;;;;;3.87;2.87;;;;;;;15.53;69.10;101001.12;4398526;32;32587;-87
2022/10/29 09:35:51;;;;;;;5.62;4.18;;;;;;;15.23;69.77;101002.47;4406633;32;32596;-86
2022/10/29 09:38:29;;;;;;;4.28;3.50;;;;;;;15.33;69.71;100993.16;4406402;32;33374;-87
2022/10/29 09:41:04;;;;;;;7.75;3.78;;;;;;;15.58;68.64;101007.09;4406886;32;32980;-87
2022/10/29 09:46:48;;;;;;;8.10;4.97;;;;;;;15.53;68.44;101013.56;4419511;32;33450;-87
2022/10/29 09:49:27;;;;;;;3.10;2.80;;;;;;;16.09;66.45;101013.66;4411866;32;32918;-87
2022/10/29 09:55:00;;;;;;;4.65;3.62;;;;;;;15.47;68.60;100977.44;4407538;32;32360;-87
2022/10/29 09:57:31;;;;;;;10.15;4.90;;;;;;;15.02;69.73;100972.37;4404644;32;33024;-87
2022/10/29 10:00:08;;;;;;;;;;;;;;;15.24;69.49;100985.56;4420340;32;32599;-87
2022/10/29 10:02:53;;;;;;;6.47;3.67;;;;;;;15.39;68.78;100982.25;4421119;32;34121;-87
2022/10/29 10:05:31;;;;;;;6.07;3.72;;;;;;;15.32;69.22;100975.47;4393337;32;33387;-87
2022/10/29 10:08:15;;;;;;;6.68;4.10;;;;;;;15.31;69.33;100982.59;4408059;32;33616;-87
2022/10/29 10:10:55;;;;;;;3.80;2.70;;;;;;;15.42;68.65;100982.09;4396601;32;33237;-87
2022/10/29 10:13:56;;;;;;;4.97;3.17;;;;;;;15.60;68.16;100986.59;4408300;32;33901;-87
2022/10/29 10:16:27;;;;;;;2.53;2.42;;;;;;;15.57;68.16;100985.84;4411093;32;34034;-87
2022/10/29 10:18:56;;;;;;;5.80;4.90;;;;;;;15.65;67.58;100982.87;4426102;32;33745;-87
2022/10/29 10:21:30;;;;;;;2.87;2.67;;;;;;;15.61;67.95;100980.31;4407368;32;34681;-87
2022/10/29 10:23:59;;;;;;;;;;;;;;;15.23;69.52;100970.53;4395809;32;34119;-87
2022/10/29 10:26:44;;;;;;;3.97;3.67;;;;;;;15.17;68.81;100971.69;4394207;32;33340;-87
2022/10/29 10:31:54;;;;;;;5.90;3.85;;;;;;;15.62;67.20;100968.75;4409330;32;32853;-88
2022/10/29 10:34:26;;;;;;;11.98;3.90;;;;;;;15.63;67.05;100956.31;4408970;32;34268;-88
2022/10/29 10:37:01;;;;;;;2.58;2.37;;;;;;;15.49;67.65;100966.72;4408880;32;32652;-87
2022/10/29 10:39:43;;;;;;;3.15;2.92;;;;;;;15.65;67.52;100957.12;4403572;32;32089;-88
2022/10/29 10:42:36;;;;;;;6.68;3.85;;;;;;;15.68;67.23;100966.78;4394322;32;33112;-88
2022/10/29 10:45:16;;;;;;;8.57;4.82;;;;;;;15.61;67.30;100972.34;4398080;32;32932;-87
2022/10/29 10:47:52;;;;;;;5.72;3.42;;;;;;;15.65;67.29;100956.25;4395577;32;33001;-87
2022/10/29 10:50:32;;;;;;;8.30;4.12;;;;;;;15.70;67.60;100949.78;4408172;32;32590;-87
2022/10/29 10:53:20;;;;;;;3.03;2.75;;;;;;;15.73;67.33;100951.47;4410187;32;33540;-87
2022/10/29 10:56:00;;;;;;;3.40;3.20;;;;;;;15.72;67.35;100947.06;4409408;32;33462;-87
2022/10/29 10:58:36;;;;;;;2.62;2.42;;;;;;;15.34;68.02;100939.88;4410627;32;33500;-87
2022/10/29 11:01:11;;;;;;;6.50;3.90;;;;;;;15.52;67.88;100943.47;4407022;32;32711;-87
2022/10/29 11:03:44;;;;;;;9.77;5.45;;;;;;;15.55;67.85;100946.00;4397264;32;33103;-87
2022/10/29 11:06:28;;;;;;;5.20;4.80;;;;;;;15.91;66.63;100944.41;4407549;32;33856;-87
2022/10/29 11:09:25;;;;;;;6.03;4.15;;;;;;;15.73;67.55;100940.81;4413249;32;34039;-87
2022/10/29 11:15:23;;;;;;;5.22;4.30;;;;;;;15.71;67.58;100929.34;4393923;32;33142;-86
2022/10/29 11:17:55;;;;;;;5.20;3.65;;;;;;;15.94;66.77;100922.94;4408181;32;33716;-86
2022/10/29 11:20:36;;;;;;;5.65;2.78;;;;;;;15.23;68.96;100927.97;4394999;32;33853;-86
2022/10/29 11:23:19;;;;;;;3.22;3.03;;;;;;;15.51;68.43;100923.12;4403595;32;33921;-87
2022/10/29 11:25:58;;;;;;;4.12;3.67;;;;;;;15.46;68.80;100925.13;4394337;32;34016;-87
2022/10/29 11:28:39;;;;;;;3.03;2.75;;;;;;;15.63;68.26;100932.34;4407887;32;32861;-87
2022/10/29 11:31:36;;;;;;;4.20;3.75;;;;;;;15.67;68.14;100930.44;4396154;32;32606;-86
2022/10/29 11:34:25;;;;;;;5.28;3.25;;;;;;;15.69;67.74;100918.78;4418149;32;31906;-96
2022/10/29 11:37:50;;;;;;;3.45;3.00;;;;;;;15.54;68.96;100915.00;4397752;32;32321;-95
2022/10/29 11:40:40;;;;;;;4.60;3.45;;;;;;;15.88;67.78;100910.78;4367885;32;33907;-88
2022/10/29 11:43:12;;;;;;;3.70;3.22;;;;;;;15.92;67.49;100901.72;4347606;32;32856;-88
2022/10/29 11:45:58;;;;;;;4.82;2.20;;;;;;;15.90;67.74;100898.22;4367634;32;33600;-88
2022/10/29 11:48:48;;;;;;;7.25;3.85;;;;;;;15.94;67.36;100891.81;4371615;32;33234;-88
2022/10/29 11:51:50;;;;;;;12.07;3.90;;;;;;;15.97;66.67;100889.03;4357222;32;33185;-88
2022/10/29 11:54:45;;;;;;;4.85;4.45;;;;;;;15.94;67.10;100889.16;4369600;32;32886;-88
2022/10/29 12:00:19;;;;;;;8.15;5.00;;;;;;;15.62;67.92;100899.53;4369897;32;33700;-88
2022/10/29 12:03:10;;;;;;;6.87;4.73;;;;;;;15.87;67.00;100893.06;4357293;32;33208;-87
2022/10/29 12:06:01;;;;;;;3.45;3.15;;;;;;;15.84;67.26;100894.06;4356935;32;32764;-87
2022/10/29 12:08:51;;;;;;;5.35;4.15;;;;;;;15.88;67.30;100889.47;4357673;32;32277;-88
2022/10/29 12:11:25;;;;;;;4.00;3.70;;;;;;;16.20;66.42;100887.03;4357274;32;32932;-88
2022/10/29 12:14:13;;;;;;;3.75;3.50;;;;;;;16.21;67.11;100880.75;4356839;32;33188;-87
2022/10/29 12:16:52;;;;;;;3.12;2.92;;;;;;;16.08;67.20;100884.03;4369466;32;33493;-88
2022/10/29 12:19:59;;;;;;;4.03;3.67;;;;;;;16.19;66.72;100890.63;4370360;32;33449;-88
2022/10/29 12:22:54;;;;;;;5.18;3.53;;;;;;;16.23;65.95;100886.88;4347737;32;32931;-88
2022/10/29 12:28:43;;;;;;;5.90;4.00;;;;;;;16.30;65.99;100885.63;4357763;32;33914;-88
2022/10/29 12:31:48;;;;;;;3.45;3.12;;;;;;;16.10;66.51;100883.97;4371829;32;33778;-89
2022/10/29 12:34:36;;;;;;;5.87;4.05;;;;;;;16.34;65.92;100871.22;4373437;32;33288;-88
2022/10/29 12:37:33;;;;;;;3.80;3.45;;;;;;;16.15;66.81;100865.94;4360517;32;32855;-89
2022/10/29 12:40:23;;;;;;;5.97;5.37;;;;;;;16.19;66.59;100859.53;4356602;32;32944;-89
2022/10/29 12:49:01;;;;;;;3.25;2.83;;;;;;;15.88;67.61;100857.50;4357382;32;33066;-89
2022/10/29 12:51:59;;;;;;;9.57;3.17;;;;;;;16.18;67.01;100838.28;4343641;32;32103;-88
2022/10/29 12:54:55;;;;;;;2.60;2.22;;;;;;;16.19;66.99;100846.22;4352560;32;33831;-86
2022/10/29 12:57:34;;;;;;;3.42;3.20;;;;;;;16.27;66.50;100845.81;4351151;32;34693;-88
2022/10/29 13:00:23;;;;;;;3.35;3.05;;;;;;;16.21;66.76;100838.13;4343903;33;34536;-87
2022/10/29 13:02:54;;;;;;;6.18;4.18;;;;;;;16.17;66.61;100842.75;4345034;33;33287;-88
2022/10/29 13:05:40;;;;;;;4.47;3.87;;;;;;;16.36;66.05;100832.88;4357784;32;33430;-89
2022/10/29 13:08:28;;;;;;;3.33;3.12;;;;;;;16.19;66.61;100835.56;4358865;32;32880;-95
2022/10/29 13:11:20;;;;;;;3.20;2.90;;;;;;;16.17;65.85;100845.41;4360640;32;33415;-95
2022/10/29 13:14:09;;;;;;;3.20;3.00;;;;;;;16.15;66.20;100831.31;4407210;32;34026;-95
2022/10/29 13:16:56;;;;;;;2.25;1.62;;;;;;;16.02;66.68;100841.72;4415040;32;33884;-94
2022/10/29 13:20:20;;;;;;;2.80;2.53;;;;;;;16.09;66.39;100840.47;4362466;32;34488;-96
2022/10/29 13:23:36;;;;;;;3.12;2.40;;;;;;;16.13;66.18;100835.84;4370571;32;33647;-94
2022/10/29 13:26:54;;;;;;;2.83;2.17;;;;;;;16.19;65.93;100840.00;4395144;32;32508;-95
2022/10/29 13:29:43;;;;;;;2.90;2.53;;;;;;;16.31;65.54;100847.37;4403957;32;31748;-95
2022/10/29 13:35:20;;;;;;;5.35;2.70;;;;;;;16.25;66.34;100829.91;4395139;32;32880;-95
2022/10/29 13:38:18;;;;;;;8.43;3.03;;;;;;;16.38;65.53;100833.66;4423162;32;32293;-95
2022/10/29 13:41:14;;;;;;;3.40;3.05;;;;;;;16.58;64.82;100831.78;4434478;32;20156;-95
2022/10/29 13:44:08;;;;;;;1.33;1.23;;;;;;;16.51;65.12;100833.87;4397508;32;34688;-96
2022/10/29 13:49:46;;;;;;;4.68;2.40;;;;;;;16.60;64.93;100830.72;4447913;32;32475;-94
2022/10/29 13:52:37;;;;;;;2.62;1.73;;;;;;;16.63;64.68;100816.41;4424319;32;32401;-95
2022/10/29 13:55:20;;;;;;;3.60;3.35;;;;;;;16.81;64.18;100811.94;4371146;32;33121;-95
2022/10/29 13:58:14;;;;;;;2.83;2.33;;;;;;;16.64;64.65;100810.97;4401348;32;33106;-96
2022/10/29 14:01:00;;;;;;;11.25;4.35;;;;;;;16.85;63.87;100810.78;4399287;32;32975;-95
2022/10/29 14:09:46;;;;;;;2.80;2.45;;;;;;;16.27;65.99;100811.16;4402016;32;34595;-94
2022/10/29 14:12:30;;;;;;;2.00;1.83;;;;;;;16.25;66.14;100807.72;4409201;32;33192;-94
2022/10/29 14:15:14;;;;;;;4.62;3.15;;;;;;;16.29;65.94;100809.28;4399075;32;32595;-94
2022/10/29 14:18:24;;;;;;;4.53;2.90;;;;;;;16.32;65.49;100809.97;4379088;32;33885;-95
2022/10/29 14:21:17;;;;;;;2.33;2.22;;;;;;;16.35;65.35;100815.16;4374420;32;34645;-94
2022/10/29 14:24:12;;;;;;;10.35;3.03;;;;;;;16.57;64.87;100811.41;4399556;32;32230;-95
2022/10/29 14:27:05;;;;;;;2.60;2.40;;;;;;;16.70;64.21;100807.13;4451581;32;32021;-94
2022/10/29 14:29:48;;;;;;;8.65;3.33;;;;;;;16.73;64.08;100816.81;4396539;32;33202;-95
2022/10/29 14:32:37;;;;;;;2.33;2.15;;;;;;;16.54;64.71;100820.41;4400610;32;34884;-96
2022/10/29 14:35:21;;;;;;;2.47;2.37;;;;;;;16.59;64.65;100826.34;4398231;32;32501;-96
2022/10/29 14:38:07;;;;;;;3.60;3.00;;;;;;;16.58;64.94;100818.44;4408568;32;32294;-95
2022/10/29 14:40:51;;;;;;;7.87;3.92;;;;;;;16.46;65.15;100824.41;4400321;32;33983;-95
2022/10/29 14:43:51;;;;;;;9.10;3.90;;;;;;;16.65;64.50;100815.34;4394094;32;34551;-96
2022/10/29 14:46:36;;;;;;;4.40;2.92;;;;;;;16.41;65.48;100802.44;4423853;32;33782;-96
2022/10/29 14:49:25;;;;;;;4.12;3.40;;;;;;;16.49;65.38;100809.13;4416756;32;33866;-96
2022/10/29 14:52:15;;;;;;;3.45;2.92;;;;;;;16.45;65.64;100806.69;4417889;32;32916;-95
2022/10/29 14:55:07;;;;;;;1.95;1.73;;;;;;;16.56;64.79;100815.84;4411157;32;33120;-95
2022/10/29 14:58:18;;;;;;;4.57;2.62;;;;;;;16.42;65.47;100821.03;4370551;32;32780;-95
2022/10/29 15:01:06;;;;;;;2.85;2.58;;;;;;;16.61;64.83;100813.78;4370322;32;32370;-96
2022/10/29 15:04:03;;;;;;;3.37;3.17;;;;;;;16.74;64.36;100805.19;4393820;32;33723;-95
2022/10/29 15:07:18;;;;;;;3.67;2.65;;;;;;;16.54;65.23;100809.72;4380335;32;34065;-95
2022/10/29 15:10:08;;;;;;;3.53;3.20;;;;;;;16.54;64.88;100807.06;4411022;32;32965;-95
2022/10/29 15:12:56;;;;;;;2.85;1.60;;;;;;;16.51;65.04;100809.03;4396014;32;34070;-95
2022/10/29 15:18:48;;;;;;;8.68;4.60;;;;;;;16.38;65.67;100798.16;4398018;32;32813;-95
2022/10/29 15:21:34;;;;;;;4.80;4.00;;;;;;;16.39;65.78;100797.22;4381165;32;32655;-96
2022/10/29 15:24:20;;;;;;;4.82;3.85;;;;;;;16.45;65.77;100793.37;4397502;32;33864;-94
2022/10/29 15:27:05;;;;;;;5.90;3.80;;;;;;;16.48;65.66;100778.06;4380890;32;33557;-95
2022/10/29 15:29:48;;;;;;;5.22;3.42;;;;;;;16.18;66.85;100779.66;4391833;32;33502;-95
2022/10/29 15:32:31;;;;;;;5.05;4.57;;;;;;;16.25;66.52;100781.06;4395810;32;32482;-95
2022/10/29 15:35:23;;;;;;;;;;;;;;;16.33;66.17;100768.19;4374803;32;33837;-88
2022/10/29 15:37:53;;;;;;;3.37;3.10;;;;;;;16.48;65.67;100775.41;4376168;32;33038;-88
2022/10/29 15:40:31;;;;;;;11.12;4.40;;;;;;;16.37;65.88;100775.94;4376781;32;33385;-88
2022/10/29 15:43:29;;;;;;;3.97;2.62;;;;;;;16.27;66.26;100780.03;4375469;32;34218;-88
2022/10/29 15:46:03;;;;;;;2.75;2.55;;;;;;;16.46;65.99;100774.59;4363683;32;32817;-88
2022/10/29 15:51:25;;;;;;;6.57;3.33;;;;;;;16.43;66.18;100782.78;4377670;32;32963;-88
2022/10/29 15:54:01;;;;;;;2.10;2.00;;;;;;;16.62;65.41;100788.00;4363515;32;33822;-88
2022/10/29 15:56:41;;;;;;;8.85;4.07;;;;;;;16.52;65.75;100784.97;4351601;32;33682;-88
2022/10/29 16:01:59;;;;;;;5.03;3.75;;;;;;;16.63;65.55;100793.25;4362731;32;32686;-88
2022/10/29 16:04:29;;;;;;;5.62;5.07;;;;;;;16.48;66.17;100804.72;4351691;32;32543;-88
2022/10/29 16:06:59;;;;;;;5.82;3.95;;;;;;;16.73;65.47;100803.47;4375697;32;33726;-88
2022/10/29 16:09:34;;;;;;;6.18;4.25;;;;;;;16.82;65.07;100810.97;4363725;32;32775;-87
2022/10/29 16:12:06;;;;;;;3.85;2.22;;;;;;;16.75;65.44;100804.22;4375932;32;34248;-88
2022/10/29 16:14:37;;;;;;;4.37;2.95;;;;;;;16.68;65.67;100802.81;4374805;32;32710;-88
2022/10/29 16:17:13;;;;;;;5.53;3.33;;;;;;;16.68;65.85;100792.16;4351471;32;32462;-88
2022/10/29 16:19:46;;;;;;;4.87;2.90;;;;;;;16.60;66.17;100788.06;4364973;32;33241;-88
2022/10/29 16:22:20;;;;;;;3.90;3.53;;;;;;;16.64;66.15;100794.97;4363102;32;34401;-88
2022/10/29 16:24:50;;;;;;;5.28;4.75;;;;;;;16.67;66.16;100785.97;4375649;32;33973;-88
2022/10/29 16:30:08;;;;;;;11.27;4.93;;;;;;;17.11;64.33;100794.25;4375728;32;35595;-89
2022/10/29 16:32:48;;;;;;;4.55;4.15;;;;;;;17.05;64.39;100794.59;4361893;32;33416;-88
2022/10/29 16:38:11;;;;;;;9.00;6.25;;;;;;;16.92;65.12;100792.66;4360786;32;32508;-88
2022/10/29 16:40:41;;;;;;;3.08;2.87;;;;;;;16.75;65.71;100793.56;4379186;32;33523;-88
2022/10/29 16:43:11;;;;;;;6.37;3.08;;;;;;;16.74;65.84;100790.03;4354487;32;33329;-88
2022/10/29 16:45:45;;;;;;;7.37;5.57;;;;;;;16.72;65.97;100781.28;4374830;32;34144;-88
2022/10/29 16:48:22;;;;;;;5.18;4.05;;;;;;;16.75;65.96;100777.56;4365876;32;33272;-88
2022/10/29 16:50:53;;;;;;;3.92;3.55;;;;;;;16.87;65.66;100774.25;4379459;32;32469;-88
2022/10/29 16:53:24;;;;;;;10.38;4.47;;;;;;;16.81;65.79;100770.13;4354959;32;32545;-88
2022/10/29 16:55:57;;;;;;;5.22;4.87;;;;;;;16.78;65.82;100770.28;4373555;32;33473;-89
2022/10/29 16:58:27;;;;;;;6.03;4.03;;;;;;;16.81;65.92;100779.94;4354413;32;32645;-88
2022/10/29 17:01:03;;;;;;;8.95;3.50;;;;;;;16.78;65.86;100769.41;4354953;32;32595;-88
2022/10/29 17:03:44;;;;;;;3.60;3.30;;;;;;;17.14;64.52;100777.22;4373371;32;36273;-88
2022/10/29 17:06:15;;;;;;;6.40;5.25;;;;;;;16.83;65.27;100772.69;4378241;32;32759;-88
2022/10/29 17:08:55;;;;;;;4.72;4.32;;;;;;;16.70;65.90;100774.25;4362043;32;32054;-88
2022/10/29 17:11:25;;;;;;;2.95;2.53;;;;;;;16.71;66.03;100773.31;4375472;32;33087;-88
2022/10/29 17:14:03;;;;;;;9.48;3.97;;;;;;;16.72;66.00;100764.41;4366890;32;33205;-88
2022/10/29 17:19:12;;;;;;;5.75;3.95;;;;;;;16.57;66.64;100782.94;4373295;32;32566;-88
2022/10/29 17:24:19;;;;;;;16.23;5.40;;;;;;;16.84;65.58;100785.06;4366749;32;32672;-88
2022/10/29 17:26:56;;;;;;;9.85;5.32;;;;;;;16.85;65.71;100781.44;4358888;32;33545;-88
2022/10/29 17:29:36;;;;;;;5.85;5.18;;;;;;;16.75;66.15;100764.22;4366942;32;33268;-88
2022/10/29 17:32:06;;;;;;;9.45;5.35;;;;;;;16.70;66.21;100771.59;4357592;32;33992;-88
2022/10/29 17:34:36;;;;;;;9.23;3.15;;;;;;;16.79;65.95;100761.31;4350498;32;33423;-88
2022/10/29 17:37:16;;;;;;;3.25;2.87;;;;;;;16.79;66.00;100763.13;4364159;32;34642;-88
2022/10/29 17:39:52;;;;;;;3.97;3.62;;;;;;;16.68;66.21;100761.00;4349611;32;32632;-88
2022/10/29 17:42:25;;;;;;;4.60;3.72;;;;;;;16.87;65.58;100763.56;4351589;32;33416;-89
2022/10/29 17:44:57;;;;;;;5.05;3.45;;;;;;;16.73;65.95;100755.47;4362647;32;33709;-88
2022/10/29 17:47:32;;;;;;;6.00;4.43;;;;;;;16.77;65.62;100760.56;4349662;32;32357;-88
2022/10/29 17:50:01;;;;;;;10.02;4.87;;;;;;;16.67;66.14;100766.44;4375562;32;33789;-88
2022/10/29 17:52:30;;;;;;;4.97;4.37;;;;;;;16.65;66.09;100762.03;4350650;32;33641;-88
2022/10/29 17:55:09;;;;;;;4.53;4.10;;;;;;;16.95;64.97;100768.47;4364331;32;34792;-88
2022/10/29 17:57:38;;;;;;;3.80;2.97;;;;;;;16.77;65.10;100776.56;4362458;32;32815;-88
2022/10/29 18:00:09;;;;;;;9.57;4.82;;;;;;;16.64;65.68;100778.97;4350776;32;32689;-88
2022/10/29 18:02:57;;;;;;;5.87;4.72;;;;;;;16.66;65.75;100784.22;4356529;32;34632;-88
2022/10/29 18:05:29;;;;;;;3.30;2.85;;;;;;;16.65;65.66;100778.03;4350745;32;32802;-88
2022/10/29 18:08:00;;;;;;;11.82;4.95;;;;;;;16.89;64.96;100783.88;4351172;32;32651;-88
2022/10/29 18:10:32;;;;;;;4.32;3.95;;;;;;;16.57;65.98;100782.94;4363389;32;33597;-87
2022/10/29 18:13:07;;;;;;;3.97;3.67;;;;;;;16.67;65.62;100779.78;4350776;32;32369;-89
2022/10/29 18:15:46;;;;;;;4.70;3.03;;;;;;;16.56;66.21;100773.19;4351473;32;32311;-88
2022/10/29 18:18:16;;;;;;;8.35;4.53;;;;;;;16.57;66.24;100771.41;4363094;32;32851;-88
2022/10/29 18:20:54;;;;;;;4.62;3.25;;;;;;;16.64;66.02;100770.97;4364387;32;34179;-88
2022/10/29 18:23:28;;;;;;;6.30;5.50;;;;;;;16.59;66.29;100778.34;4362485;32;33015;-89
2022/10/29 18:26:07;;;;;;;6.30;4.37;;;;;;;16.61;66.16;100768.47;4362912;32;34449;-88
2022/10/29 18:31:14;;;;;;;3.37;2.90;;;;;;;16.91;64.74;100777.62;4363345;32;32944;-88
2022/10/29 18:33:49;;;;;;;1.75;1.65;;;;;;;16.71;65.51;100770.62;4364325;32;32867;-88
2022/10/29 18:36:24;;;;;;;5.00;3.75;;;;;;;16.74;65.55;100770.50;4364349;32;35366;-88
2022/10/29 18:38:57;;;;;;;5.12;3.53;;;;;;;16.71;65.67;100765.31;4365411;32;34145;-88
2022/10/29 18:41:33;;;;;;;8.15;4.90;;;;;;;17.01;64.64;100771.69;4366946;32;33203;-87
2022/10/29 18:46:39;;;;;;;7.45;4.32;;;;;;;16.88;65.00;100765.28;4377768;32;34375;-88
2022/10/29 18:49:11;;;;;;;3.42;2.62;;;;;;;16.78;65.20;100764.06;4365374;32;33199;-88
2022/10/29 18:51:49;;;;;;;7.68;4.10;;;;;;;16.72;65.54;100764.41;4367405;32;34823;-89
2022/10/29 18:54:19;;;;;;;11.32;7.40;;;;;;;16.72;65.52;100754.59;4364658;32;33547;-88
2022/10/29 18:56:52;;;;;;;6.78;5.60;;;;;;;16.58;65.62;100765.13;4378011;32;34658;-88
2022/10/29 18:59:20;;;;;;;8.40;5.72;;;;;;;16.55;65.86;100755.47;4362861;32;32572;-88
2022/10/29 19:01:56;;;;;;;4.12;3.83;;;;;;;16.71;65.38;100758.19;4352844;32;31882;-88
2022/10/29 19:04:29;;;;;;;4.68;3.95;;;;;;;16.57;66.04;100742.06;4388132;32;34630;-88
2022/10/29 19:07:03;;;;;;;4.97;4.47;;;;;;;16.56;66.08;100746.50;4364360;32;33369;-88
2022/10/29 19:09:51;;;;;;;7.97;6.32;;;;;;;16.53;66.02;100743.19;4354488;32;32484;-88
2022/10/29 19:12:22;;;;;;;3.50;3.20;;;;;;;16.71;65.63;100742.19;4391469;32;33171;-88
2022/10/29 19:14:56;;;;;;;8.77;4.87;;;;;;;16.56;66.14;100735.84;4366929;32;33964;-88
2022/10/29 19:17:26;;;;;;;7.40;4.47;;;;;;;16.60;66.19;100740.06;4364661;32;32911;-88
2022/10/29 19:19:56;;;;;;;7.78;4.65;;;;;;;16.63;66.19;100739.06;4367545;32;32543;-89
2022/10/29 19:22:27;;;;;;;5.53;5.03;;;;;;;16.69;65.98;100735.19;4367122;32;32347;-88
2022/10/29 19:24:56;;;;;;;6.32;4.28;;;;;;;16.67;66.12;100739.78;4355405;32;34400;-88
2022/10/29 19:27:25;;;;;;;6.47;4.35;;;;;;;16.77;65.69;100730.34;4378726;32;33584;-88
2022/10/29 19:29:57;;;;;;;3.25;2.95;;;;;;;16.67;66.12;100718.44;4353507;32;33707;-88
2022/10/29 19:32:30;;;;;;;4.00;3.62;;;;;;;16.69;66.02;100727.19;4355806;32;33677;-88
2022/10/29 19:34:59;;;;;;;3.75;3.42;;;;;;;16.77;65.71;100725.03;4351940;32;32629;-88
2022/10/29 19:37:27;;;;;;;6.07;4.90;;;;;;;16.68;66.08;100722.81;4372031;32;33261;-88
2022/10/29 19:40:00;;;;;;;9.82;5.30;;;;;;;16.67;66.14;100723.78;4362078;32;32956;-88
2022/10/29 19:42:37;;;;;;;4.03;3.72;;;;;;;16.92;64.96;100729.50;4357672;32;32418;-89
2022/10/29 19:45:07;;;;;;;5.07;4.35;;;;;;;16.75;65.61;100738.41;4358838;32;33642;-88
2022/10/29 19:47:35;;;;;;;5.15;4.60;;;;;;;16.64;65.79;100736.31;4361378;32;34002;-88
2022/10/29 19:50:10;;;;;;;5.57;4.37;;;;;;;16.55;66.11;100728.81;4357569;32;33754;-90